Time;durP1;ratioP1;P1;durP2;ratioP2;P2;SDS_P1;SDS_P2;PMS_P1;PMS_P2;Temp;Humidity;BMP_temperature;BMP_pressure;BME280_temperature;BME280_humidity;BME280_pressure;Samples;Min_cycle;Max_cycle;Signal;HPM_P1;HPM_P2
2022/11/21 00:01:53;;;;;;;4.73;4.43;;;-0.30;97.30;;;;;;5055850;28;20203;-81
2022/11/21 00:04:18;;;;;;;2.90;2.70;;;-0.30;97.30;;;;;;5055940;28;20419;-81
2022/11/21 00:06:44;;;;;;;6.83;5.07;;;-0.20;97.30;;;;;;5043548;28;20221;-81
2022/11/21 00:09:09;;;;;;;12.37;6.03;;;-0.20;97.30;;;;;;5055837;28;20199;-82
2022/11/21 00:11:35;;;;;;;4.87;4.33;;;-0.20;97.30;;;;;;5055481;28;20187;-81
2022/11/21 00:14:00;;;;;;;16.23;4.30;;;-0.20;97.30;;;;;;5042647;28;20182;-81
2022/11/21 00:16:26;;;;;;;4.77;4.53;;;-0.20;97.30;;;;;;5052783;28;20175;-82
2022/11/21 00:18:52;;;;;;;6.13;3.93;;;-0.20;97.30;;;;;;5043202;28;20206;-81
2022/11/21 00:21:19;;;;;;;6.33;4.37;;;-0.20;97.30;;;;;;5072349;28;20212;-81
2022/11/21 00:23:46;;;;;;;5.90;4.60;;;-0.10;97.30;;;;;;5043095;28;20274;-82
2022/11/21 00:26:13;;;;;;;6.77;6.37;;;-0.10;97.30;;;;;;5048606;28;20438;-79
2022/11/21 00:28:39;;;;;;;6.60;3.50;;;-0.10;97.30;;;;;;5021293;28;20972;-82
2022/11/21 00:31:05;;;;;;;11.13;3.93;;;-0.10;97.30;;;;;;5054618;28;20418;-79
2022/11/21 00:33:33;;;;;;;6.67;5.67;;;-0.10;97.30;;;;;;5057044;28;20524;-80
2022/11/21 00:36:06;;;;;;;5.20;2.77;;;-0.10;97.30;;;;;;5055882;28;20179;-83
2022/11/21 00:38:31;;;;;;;2.53;2.33;;;0.00;97.30;;;;;;5054483;28;20445;-82
2022/11/21 00:40:57;;;;;;;5.63;3.93;;;0.00;97.30;;;;;;5074268;28;20464;-80
2022/11/21 00:43:22;;;;;;;2.47;2.20;;;0.00;97.30;;;;;;5042267;28;20187;-79
2022/11/21 00:45:48;;;;;;;11.03;8.37;;;0.00;97.30;;;;;;5073482;28;20189;-81
2022/11/21 00:48:13;;;;;;;2.70;2.50;;;0.10;97.30;;;;;;5055306;28;20706;-79
2022/11/21 00:50:39;;;;;;;9.57;5.90;;;0.10;97.30;;;;;;5056246;28;20270;-79
2022/11/21 00:53:04;;;;;;;5.50;4.50;;;0.10;97.30;;;;;;5074171;28;20214;-81
2022/11/21 00:55:30;;;;;;;6.73;4.27;;;0.10;97.30;;;;;;5073905;28;20241;-79
2022/11/21 00:57:55;;;;;;;5.30;5.00;;;0.10;97.30;;;;;;5028938;28;20204;-79
2022/11/21 01:00:21;;;;;;;6.30;4.33;;;0.10;97.30;;;;;;5042184;28;20205;-82
2022/11/21 01:02:46;;;;;;;4.43;4.17;;;0.10;97.30;;;;;;5055556;28;20172;-80
2022/11/21 01:05:12;;;;;;;7.27;4.10;;;0.10;97.30;;;;;;5073374;28;20649;-78
2022/11/21 01:07:38;;;;;;;4.10;3.90;;;0.10;97.30;;;;;;5055385;28;20185;-80
2022/11/21 01:10:04;;;;;;;6.33;4.17;;;0.10;97.30;;;;;;5074075;28;20182;-78
2022/11/21 01:12:30;;;;;;;7.80;4.20;;;0.20;97.30;;;;;;5042257;28;20176;-80
2022/11/21 01:14:55;;;;;;;3.33;2.40;;;0.20;97.30;;;;;;5056485;28;20772;-81
2022/11/21 01:17:21;;;;;;;5.87;5.63;;;0.20;97.30;;;;;;5057091;28;20421;-81
2022/11/21 01:19:46;;;;;;;8.97;4.53;;;0.30;97.30;;;;;;5062465;28;20290;-81
2022/11/21 01:22:12;;;;;;;4.53;2.30;;;0.30;97.30;;;;;;5049674;28;20709;-79
2022/11/21 01:24:37;;;;;;;8.43;6.53;;;0.30;97.30;;;;;;5056034;28;20262;-81
2022/11/21 01:27:03;;;;;;;3.90;3.70;;;0.30;97.30;;;;;;5075242;28;20217;-81
2022/11/21 01:29:28;;;;;;;5.43;4.20;;;0.30;97.30;;;;;;5064444;28;20195;-82
2022/11/21 01:31:54;;;;;;;4.50;2.80;;;0.30;97.30;;;;;;5062261;28;20183;-82
2022/11/21 01:34:20;;;;;;;11.73;5.77;;;0.30;97.30;;;;;;5062288;28;20183;-80
2022/11/21 01:36:46;;;;;;;7.23;3.87;;;0.30;97.30;;;;;;5048557;28;20184;-84
2022/11/21 01:39:12;;;;;;;5.27;4.97;;;0.30;97.30;;;;;;5062757;28;20199;-82
2022/11/21 01:41:40;;;;;;;13.60;6.67;;;0.30;97.30;;;;;;5037310;28;20423;-81
2022/11/21 01:44:44;;;;;;;2.70;2.50;;;0.30;97.30;;;;;;5041930;28;20614;-82
2022/11/21 01:47:09;;;;;;;7.73;2.90;;;0.40;97.30;;;;;;5053260;28;20858;-80
2022/11/21 01:49:36;;;;;;;3.83;3.17;;;0.40;97.30;;;;;;5053794;28;20523;-83
2022/11/21 01:52:03;;;;;;;4.40;2.60;;;0.30;97.30;;;;;;5056722;28;20658;-81
2022/11/21 01:54:47;;;;;;;2.40;2.20;;;0.30;97.30;;;;;;5041888;28;20418;-83
2022/11/21 01:57:18;;;;;;;3.80;3.53;;;0.30;97.30;;;;;;5053460;28;20528;-79
2022/11/21 02:00:01;;;;;;;7.53;4.20;;;0.20;97.30;;;;;;5052485;28;20485;-83
2022/11/21 02:02:30;;;;;;;5.27;4.97;;;0.20;97.30;;;;;;5063433;28;20411;-82
2022/11/21 02:04:58;;;;;;;6.93;5.43;;;0.20;97.30;;;;;;5046910;28;20421;-82
2022/11/21 02:07:25;;;;;;;6.73;4.80;;;0.20;97.30;;;;;;5051859;28;20465;-81
2022/11/21 02:09:54;;;;;;;5.30;4.93;;;0.10;97.30;;;;;;5052753;28;20440;-81
2022/11/21 02:12:50;;;;;;;7.77;4.40;;;0.10;97.30;;;;;;5052568;28;20445;-82
2022/11/21 02:15:29;;;;;;;10.53;5.50;;;0.10;97.30;;;;;;5036329;28;20449;-80
2022/11/21 02:17:55;;;;;;;7.50;4.93;;;0.10;97.30;;;;;;5028035;28;20449;-79
2022/11/21 02:20:24;;;;;;;4.87;3.40;;;0.10;97.30;;;;;;5028581;28;20552;-83
2022/11/21 02:23:25;;;;;;;3.53;3.33;;;0.10;97.30;;;;;;5051335;28;20426;-81
2022/11/21 02:25:52;;;;;;;3.40;3.20;;;0.10;97.30;;;;;;5040051;28;20428;-81
2022/11/21 02:28:22;;;;;;;4.40;4.10;;;0.20;97.30;;;;;;5042670;28;21175;-83
2022/11/21 02:30:48;;;;;;;7.30;3.83;;;0.20;97.30;;;;;;5036769;28;20428;-85
2022/11/21 02:33:14;;;;;;;5.23;5.00;;;0.20;97.30;;;;;;5052902;28;20512;-81
2022/11/21 02:35:40;;;;;;;3.73;3.53;;;0.20;97.30;;;;;;5040027;28;20634;-84
2022/11/21 02:38:10;;;;;;;5.27;5.00;;;0.20;97.30;;;;;;5042448;28;20496;-80
2022/11/21 02:40:42;;;;;;;10.73;3.93;;;0.20;97.30;;;;;;5036790;28;20552;-83
2022/11/21 02:43:26;;;;;;;9.60;3.27;;;0.20;97.30;;;;;;5034079;28;20936;-84
2022/11/21 02:45:52;;;;;;;6.90;5.23;;;0.20;97.30;;;;;;5037901;28;20800;-84
2022/11/21 02:48:17;;;;;;;6.73;5.30;;;0.20;97.30;;;;;;5049213;28;20448;-84
2022/11/21 02:50:45;;;;;;;6.30;4.47;;;0.20;97.30;;;;;;5062509;28;20189;-85
2022/11/21 02:53:13;;;;;;;4.13;3.90;;;0.20;97.30;;;;;;5047391;28;20183;-84
2022/11/21 02:55:39;;;;;;;3.97;3.77;;;0.20;97.30;;;;;;5049714;28;20428;-84
2022/11/21 02:58:05;;;;;;;4.00;3.33;;;0.20;97.30;;;;;;5046237;28;20457;-85
2022/11/21 03:00:33;;;;;;;2.40;2.20;;;0.20;97.30;;;;;;5045070;28;21090;-84
2022/11/21 03:02:59;;;;;;;16.10;5.93;;;0.20;97.30;;;;;;5036133;28;20458;-85
2022/11/21 03:05:24;;;;;;;5.87;5.57;;;0.20;97.30;;;;;;5064578;28;20747;-83
2022/11/21 03:07:50;;;;;;;8.73;5.40;;;0.20;97.30;;;;;;5041326;28;20207;-85
2022/11/21 03:10:16;;;;;;;11.43;4.13;;;0.20;97.30;;;;;;5051725;28;20186;-86
2022/11/21 03:12:42;;;;;;;5.80;5.30;;;0.20;97.30;;;;;;5023479;28;20604;-85
2022/11/21 03:15:11;;;;;;;4.77;4.47;;;0.20;97.30;;;;;;5049280;28;20453;-85
2022/11/21 03:17:37;;;;;;;10.50;4.70;;;0.20;97.30;;;;;;5046710;28;20944;-84
2022/11/21 03:20:03;;;;;;;5.90;5.23;;;0.20;97.30;;;;;;5053713;28;20594;-84
2022/11/21 03:22:29;;;;;;;6.00;5.13;;;0.20;97.30;;;;;;5042480;28;20940;-85
2022/11/21 03:24:54;;;;;;;11.70;5.47;;;0.20;97.30;;;;;;5044468;28;20498;-85
2022/11/21 03:27:20;;;;;;;4.77;4.50;;;0.20;97.30;;;;;;5054800;28;20167;-85
2022/11/21 03:29:45;;;;;;;3.20;3.00;;;0.20;97.30;;;;;;5041206;28;20206;-85
2022/11/21 03:32:11;;;;;;;6.13;3.93;;;0.20;97.30;;;;;;5042739;28;20191;-85
2022/11/21 03:34:36;;;;;;;4.97;3.10;;;0.20;97.30;;;;;;5060317;28;20180;-85
2022/11/21 03:37:02;;;;;;;6.83;4.90;;;0.20;97.30;;;;;;5026840;28;20213;-85
2022/11/21 03:39:31;;;;;;;2.90;2.70;;;0.20;97.30;;;;;;5052797;28;20709;-85
2022/11/21 03:41:57;;;;;;;7.20;3.20;;;0.10;97.30;;;;;;5041798;28;20184;-85
2022/11/21 03:44:22;;;;;;;4.00;3.80;;;0.10;97.30;;;;;;5052601;28;20421;-85
2022/11/21 03:46:48;;;;;;;4.97;4.00;;;0.10;97.30;;;;;;5054186;28;20182;-85
2022/11/21 03:49:15;;;;;;;2.93;2.73;;;0.10;97.30;;;;;;5071689;28;20206;-84
2022/11/21 03:51:41;;;;;;;3.77;3.57;;;0.10;97.30;;;;;;5051438;28;20175;-85
2022/11/21 03:54:07;;;;;;;4.87;4.60;;;0.00;97.30;;;;;;5053329;28;20436;-85
2022/11/21 03:56:33;;;;;;;5.67;3.80;;;0.00;97.30;;;;;;5031468;28;20841;-85
2022/11/21 03:58:59;;;;;;;11.03;5.77;;;0.00;97.30;;;;;;5031455;28;20743;-85
2022/11/21 04:01:25;;;;;;;11.03;5.97;;;0.00;97.30;;;;;;5033680;28;20473;-85
2022/11/21 04:03:50;;;;;;;3.93;3.73;;;0.00;97.30;;;;;;5051382;28;20186;-84
2022/11/21 04:06:18;;;;;;;6.93;3.33;;;0.00;97.30;;;;;;5038871;28;20423;-85
2022/11/21 04:08:44;;;;;;;9.07;6.10;;;-0.10;97.30;;;;;;5037683;28;20268;-86
2022/11/21 04:11:10;;;;;;;6.23;5.90;;;-0.10;97.30;;;;;;5054063;28;20450;-85
2022/11/21 04:13:36;;;;;;;6.70;4.43;;;-0.10;97.30;;;;;;5035163;28;20429;-85
2022/11/21 04:16:02;;;;;;;9.27;6.10;;;-0.10;97.30;;;;;;5027364;28;20431;-84
2022/11/21 04:18:28;;;;;;;12.77;5.93;;;-0.10;97.30;;;;;;5046045;28;20826;-84
2022/11/21 04:20:58;;;;;;;7.17;6.77;;;-0.10;97.30;;;;;;5045922;28;20203;-84
2022/11/21 04:23:24;;;;;;;2.73;2.53;;;-0.10;97.30;;;;;;5035289;28;20176;-85
2022/11/21 04:25:50;;;;;;;3.20;3.00;;;-0.10;97.30;;;;;;5046977;28;20410;-85
2022/11/21 04:28:15;;;;;;;4.23;3.77;;;-0.10;97.30;;;;;;5039732;28;20483;-84
2022/11/21 04:30:41;;;;;;;5.33;5.03;;;-0.10;97.30;;;;;;5053065;28;20183;-84
2022/11/21 04:33:07;;;;;;;9.43;4.93;;;-0.10;97.30;;;;;;5046600;28;20317;-84
2022/11/21 04:35:32;;;;;;;5.43;5.03;;;-0.10;97.30;;;;;;5033369;28;20227;-83
2022/11/21 04:37:58;;;;;;;12.60;4.70;;;-0.10;97.30;;;;;;5064431;28;20436;-84
2022/11/21 04:40:23;;;;;;;6.20;5.87;;;-0.10;97.30;;;;;;5045460;28;20594;-85
2022/11/21 04:42:50;;;;;;;4.00;3.83;;;-0.10;97.30;;;;;;5029202;28;20619;-84
2022/11/21 04:45:16;;;;;;;6.43;5.27;;;-0.10;97.30;;;;;;5026438;28;20184;-84
2022/11/21 04:47:44;;;;;;;9.27;5.57;;;-0.10;97.30;;;;;;5032522;28;20419;-84
2022/11/21 04:50:14;;;;;;;4.70;4.23;;;-0.10;97.30;;;;;;5046173;28;20424;-84
2022/11/21 04:52:40;;;;;;;5.57;3.80;;;-0.20;97.30;;;;;;5068051;28;20418;-84
2022/11/21 04:55:06;;;;;;;13.13;5.30;;;-0.10;97.30;;;;;;5052443;28;20413;-84
2022/11/21 04:57:32;;;;;;;3.53;3.33;;;-0.10;97.30;;;;;;5033179;28;20468;-84
2022/11/21 04:59:57;;;;;;;3.93;2.97;;;-0.10;97.30;;;;;;5045342;28;20481;-84
2022/11/21 05:02:23;;;;;;;6.70;3.50;;;-0.10;97.30;;;;;;5022105;28;20203;-84
2022/11/21 05:04:49;;;;;;;4.57;4.27;;;-0.10;97.30;;;;;;5033775;28;20210;-84
2022/11/21 05:07:16;;;;;;;4.17;3.70;;;-0.10;97.30;;;;;;5038906;28;20924;-84
2022/11/21 05:09:42;;;;;;;6.57;3.83;;;-0.20;97.30;;;;;;5027749;28;20682;-84
2022/11/21 05:14:55;;;;;;;6.53;4.70;;;-0.20;97.30;;;;;;5049762;28;20194;-84
2022/11/21 05:17:21;;;;;;;11.13;5.53;;;0.00;97.30;;;;;;5025078;28;20442;-83
2022/11/21 05:19:47;;;;;;;15.17;3.27;;;0.00;97.30;;;;;;5050863;28;20521;-83
2022/11/21 05:22:13;;;;;;;10.07;4.33;;;0.00;97.30;;;;;;5039650;28;20951;-84
2022/11/21 05:24:39;;;;;;;4.10;2.43;;;0.10;97.30;;;;;;5038348;28;20242;-84
2022/11/21 05:27:04;;;;;;;9.90;5.20;;;0.10;97.30;;;;;;5029542;28;20926;-84
2022/11/21 05:29:30;;;;;;;8.33;4.40;;;0.10;97.30;;;;;;5032430;28;20637;-83
2022/11/21 05:31:56;;;;;;;6.83;3.03;;;0.10;97.30;;;;;;5027904;28;20183;-83
2022/11/21 05:34:22;;;;;;;8.03;3.60;;;0.10;97.30;;;;;;5038507;28;20187;-84
2022/11/21 05:36:47;;;;;;;9.40;4.87;;;0.10;97.30;;;;;;5043465;28;20509;-84
2022/11/21 05:39:14;;;;;;;10.57;6.77;;;0.00;97.30;;;;;;5031511;28;20553;-84
2022/11/21 05:41:40;;;;;;;3.83;3.17;;;0.00;97.30;;;;;;5037792;28;20183;-84
2022/11/21 05:44:06;;;;;;;7.40;4.73;;;-0.10;97.30;;;;;;5054528;28;20403;-84
2022/11/21 05:46:31;;;;;;;3.23;3.03;;;-0.10;97.30;;;;;;5045478;28;20450;-83
2022/11/21 05:48:57;;;;;;;11.73;6.93;;;-0.10;97.30;;;;;;5042686;28;20194;-84
2022/11/21 05:51:22;;;;;;;7.27;6.17;;;-0.10;97.30;;;;;;5043884;28;20634;-85
2022/11/21 05:53:48;;;;;;;2.93;2.30;;;0.00;97.30;;;;;;5050201;28;20190;-84
2022/11/21 05:56:16;;;;;;;6.77;4.03;;;0.00;97.30;;;;;;5050497;28;20699;-83
2022/11/21 05:58:41;;;;;;;4.40;4.10;;;0.10;97.30;;;;;;5023543;28;20368;-84
2022/11/21 06:01:10;;;;;;;16.47;7.00;;;0.20;97.30;;;;;;5041542;28;20568;-84
2022/11/21 06:03:38;;;;;;;10.53;4.20;;;0.20;97.30;;;;;;5050810;28;20204;-84
2022/11/21 06:06:12;;;;;;;8.50;3.57;;;0.20;97.30;;;;;;5050493;28;20413;-83
2022/11/21 06:08:44;;;;;;;4.27;4.00;;;0.10;97.30;;;;;;5051509;28;20458;-83
2022/11/21 06:11:12;;;;;;;9.10;5.13;;;0.10;97.30;;;;;;5051920;28;20590;-83
2022/11/21 06:13:38;;;;;;;13.23;4.33;;;0.10;97.30;;;;;;5051854;28;20462;-84
2022/11/21 06:16:07;;;;;;;3.60;3.07;;;0.00;97.30;;;;;;5051619;28;20652;-83
2022/11/21 06:18:43;;;;;;;3.97;3.77;;;0.00;97.30;;;;;;5035881;28;20464;-83
2022/11/21 06:21:24;;;;;;;8.50;4.33;;;-0.10;97.30;;;;;;5037709;28;20464;-84
2022/11/21 06:23:51;;;;;;;3.73;3.53;;;-0.10;97.30;;;;;;5041586;28;20418;-84
2022/11/21 06:26:20;;;;;;;3.73;3.60;;;-0.10;97.30;;;;;;5051535;28;20943;-84
2022/11/21 06:28:46;;;;;;;3.03;2.60;;;-0.20;97.30;;;;;;5046326;28;20443;-84
2022/11/21 06:31:14;;;;;;;8.33;6.00;;;-0.20;97.30;;;;;;5032581;28;20829;-84
2022/11/21 06:33:41;;;;;;;8.90;5.37;;;-0.20;97.30;;;;;;5026109;28;20537;-83
2022/11/21 06:36:11;;;;;;;3.33;3.13;;;-0.20;97.30;;;;;;5035257;28;20501;-83
2022/11/21 06:38:37;;;;;;;17.47;6.67;;;-0.10;97.30;;;;;;5036497;28;20446;-84
2022/11/21 06:41:09;;;;;;;20.43;4.00;;;-0.10;97.30;;;;;;5070027;28;20469;-84
2022/11/21 06:43:35;;;;;;;4.53;4.23;;;-0.10;97.30;;;;;;5032208;28;20428;-83
2022/11/21 06:46:02;;;;;;;5.20;4.90;;;-0.10;97.30;;;;;;5052093;28;20409;-84
2022/11/21 06:48:29;;;;;;;9.97;3.80;;;-0.10;97.30;;;;;;5073287;28;20199;-83
2022/11/21 06:50:54;;;;;;;13.30;5.87;;;-0.10;97.30;;;;;;5053536;28;20429;-82
2022/11/21 06:53:20;;;;;;;7.07;3.83;;;-0.20;97.30;;;;;;5056320;28;20478;-83
2022/11/21 06:55:45;;;;;;;17.23;5.53;;;-0.20;97.30;;;;;;5056047;28;20175;-84
2022/11/21 06:58:11;;;;;;;2.87;2.67;;;-0.10;97.30;;;;;;5055946;28;20230;-82
2022/11/21 07:00:36;;;;;;;5.70;4.17;;;-0.10;97.30;;;;;;5074197;28;20643;-84
2022/11/21 07:03:02;;;;;;;3.57;3.37;;;-0.10;97.30;;;;;;5078084;28;20329;-85
2022/11/21 07:05:28;;;;;;;3.80;3.60;;;-0.10;97.30;;;;;;5069324;28;20612;-83
2022/11/21 07:08:02;;;;;;;9.57;4.00;;;-0.10;97.30;;;;;;5055516;28;20444;-83
2022/11/21 07:10:29;;;;;;;7.33;4.67;;;0.00;97.30;;;;;;5055252;28;20421;-83
2022/11/21 07:15:44;;;;;;;7.97;7.57;;;0.10;97.30;;;;;;5070057;28;20525;-83
2022/11/21 07:18:09;;;;;;;8.33;5.03;;;0.10;97.30;;;;;;5035069;28;20440;-83
2022/11/21 07:20:35;;;;;;;11.83;5.50;;;0.10;97.30;;;;;;5035134;28;20901;-83
2022/11/21 07:23:00;;;;;;;9.60;8.70;;;0.10;97.30;;;;;;5035427;28;20180;-83
2022/11/21 07:25:26;;;;;;;4.60;3.60;;;0.00;97.30;;;;;;5035039;28;20184;-84
2022/11/21 07:27:51;;;;;;;5.47;3.90;;;0.10;97.30;;;;;;5035262;28;20689;-84
2022/11/21 07:30:17;;;;;;;9.20;4.10;;;0.10;97.30;;;;;;5034971;28;20176;-83
2022/11/21 07:32:43;;;;;;;13.73;6.57;;;0.10;97.30;;;;;;5034958;28;20271;-84
2022/11/21 07:35:09;;;;;;;15.00;7.37;;;0.10;97.30;;;;;;5035003;28;20184;-84
2022/11/21 07:37:38;;;;;;;12.23;5.80;;;0.20;97.30;;;;;;5034999;28;20180;-84
2022/11/21 07:40:05;;;;;;;6.43;6.07;;;0.20;97.30;;;;;;5035031;28;20208;-83
2022/11/21 07:42:34;;;;;;;6.47;3.87;;;0.10;97.30;;;;;;5035328;28;20417;-83
2022/11/21 07:44:59;;;;;;;6.00;2.30;;;0.00;97.30;;;;;;5037041;28;20410;-83
2022/11/21 07:47:25;;;;;;;3.63;3.43;;;0.00;97.30;;;;;;5054813;28;20719;-84
2022/11/21 07:49:50;;;;;;;6.00;4.47;;;-0.10;97.30;;;;;;5036318;28;20206;-84
2022/11/21 07:52:16;;;;;;;4.10;2.33;;;-0.10;97.30;;;;;;5036397;28;20183;-83
2022/11/21 07:54:41;;;;;;;6.33;4.47;;;0.00;97.30;;;;;;5036901;28;20176;-84
2022/11/21 07:57:07;;;;;;;6.83;3.30;;;0.00;97.30;;;;;;5036745;28;20178;-83
2022/11/21 07:59:32;;;;;;;18.53;5.60;;;0.10;97.30;;;;;;5034413;28;20279;-84
2022/11/21 08:01:58;;;;;;;8.20;4.87;;;0.20;97.30;;;;;;5034550;28;20195;-83
2022/11/21 08:04:23;;;;;;;19.07;6.70;;;0.20;97.30;;;;;;5034671;28;20176;-83
2022/11/21 08:06:49;;;;;;;12.23;2.77;;;0.10;97.30;;;;;;5034276;28;20176;-84
2022/11/21 08:09:14;;;;;;;12.27;7.20;;;0.20;97.30;;;;;;5034495;28;20686;-84
2022/11/21 08:11:40;;;;;;;7.27;4.00;;;0.10;97.30;;;;;;5034179;28;20533;-84
2022/11/21 08:14:05;;;;;;;6.73;5.87;;;0.00;97.30;;;;;;5034301;28;20677;-83
2022/11/21 08:16:31;;;;;;;6.63;6.00;;;0.10;97.30;;;;;;5034148;28;20435;-83
2022/11/21 08:18:58;;;;;;;10.27;7.50;;;0.10;97.30;;;;;;5034174;28;20191;-83
2022/11/21 08:21:24;;;;;;;10.63;6.70;;;0.10;97.30;;;;;;5033777;28;20711;-83
2022/11/21 08:23:49;;;;;;;12.93;4.77;;;0.20;97.30;;;;;;5034152;28;20818;-83
2022/11/21 08:26:15;;;;;;;5.67;3.57;;;0.20;97.30;;;;;;5034060;28;20179;-83
2022/11/21 08:28:41;;;;;;;12.93;6.43;;;0.20;97.30;;;;;;5033937;28;20731;-83
2022/11/21 08:31:06;;;;;;;4.30;3.77;;;0.20;97.30;;;;;;5033971;28;20472;-84
2022/11/21 08:33:32;;;;;;;6.60;5.60;;;0.30;97.30;;;;;;5033858;28;20183;-83
2022/11/21 08:35:57;;;;;;;3.23;3.03;;;0.40;97.30;;;;;;5033785;28;20382;-83
2022/11/21 08:38:23;;;;;;;5.30;3.30;;;0.40;97.30;;;;;;5033325;28;20204;-84
2022/11/21 08:42:01;;;;;;;3.57;3.37;;;0.40;97.30;;;;;;5033592;28;20210;-83
2022/11/21 08:43:37;;;;;;;7.47;5.50;;;0.50;97.30;;;;;;5051204;28;20321;-83
2022/11/21 08:46:02;;;;;;;3.90;2.40;;;0.50;97.30;;;;;;5050743;28;20938;-84
2022/11/21 08:48:28;;;;;;;7.03;3.63;;;0.40;97.30;;;;;;5033453;28;20196;-83
2022/11/21 08:50:56;;;;;;;9.40;5.70;;;0.50;97.30;;;;;;5033313;28;20186;-83
2022/11/21 08:53:22;;;;;;;9.93;4.50;;;0.50;97.30;;;;;;5033162;28;20180;-84
2022/11/21 08:55:47;;;;;;;5.10;3.10;;;0.50;97.30;;;;;;5033118;28;20857;-84
2022/11/21 08:58:13;;;;;;;7.37;3.20;;;0.50;97.30;;;;;;5032905;28;20273;-83
2022/11/21 09:00:38;;;;;;;3.00;2.17;;;0.40;97.30;;;;;;5032890;28;20207;-83
2022/11/21 09:03:04;;;;;;;4.60;4.30;;;0.50;97.30;;;;;;5050852;28;20179;-83
2022/11/21 09:05:30;;;;;;;3.70;3.10;;;0.50;97.30;;;;;;5033088;28;20179;-84
2022/11/21 09:07:56;;;;;;;7.23;3.80;;;0.50;97.30;;;;;;5033579;28;20206;-83
2022/11/21 09:10:23;;;;;;;3.23;2.63;;;0.50;97.30;;;;;;5033549;28;20410;-84
2022/11/21 09:12:48;;;;;;;6.50;3.80;;;0.50;97.30;;;;;;5033865;28;20937;-83
2022/11/21 09:18:02;;;;;;;3.13;1.70;;;0.50;97.30;;;;;;5031626;28;20235;-85
2022/11/21 09:20:28;;;;;;;1.70;1.60;;;0.60;97.30;;;;;;5013040;28;20811;-85
2022/11/21 09:22:53;;;;;;;6.63;3.70;;;0.70;97.30;;;;;;5013177;28;20450;-85
2022/11/21 09:25:19;;;;;;;2.43;2.23;;;0.80;97.30;;;;;;5013003;28;20461;-84
2022/11/21 09:27:44;;;;;;;3.67;2.77;;;0.80;97.30;;;;;;5013149;28;20183;-85
2022/11/21 09:30:10;;;;;;;5.20;3.80;;;0.90;97.30;;;;;;5030582;28;20548;-82
2022/11/21 09:32:36;;;;;;;3.33;3.17;;;0.90;97.30;;;;;;5012992;28;20243;-85
2022/11/21 09:35:02;;;;;;;4.80;3.63;;;0.80;97.30;;;;;;5012895;28;20471;-85
2022/11/21 09:37:27;;;;;;;4.03;2.90;;;0.80;97.30;;;;;;5012487;28;20191;-84
2022/11/21 09:39:53;;;;;;;14.20;5.83;;;0.80;97.30;;;;;;5012975;28;20960;-84
2022/11/21 09:42:49;;;;;;;5.87;3.00;;;0.80;97.30;;;;;;5013085;28;20701;-84
2022/11/21 09:45:22;;;;;;;4.00;3.20;;;0.70;97.30;;;;;;5013337;28;20173;-84
2022/11/21 09:47:50;;;;;;;5.63;3.97;;;0.60;97.30;;;;;;5013038;28;20419;-84
2022/11/21 09:50:22;;;;;;;8.13;4.20;;;0.60;97.30;;;;;;5013075;28;20419;-84
2022/11/21 09:53:01;;;;;;;5.53;3.40;;;0.70;97.30;;;;;;5013117;28;20454;-85
2022/11/21 09:55:35;;;;;;;1.60;1.50;;;0.60;97.30;;;;;;5013293;28;20521;-84
2022/11/21 09:58:21;;;;;;;8.27;3.90;;;0.60;97.30;;;;;;5014150;28;21077;-84
2022/11/21 10:00:51;;;;;;;8.00;4.03;;;0.70;97.30;;;;;;5017689;28;20466;-84
2022/11/21 10:03:18;;;;;;;4.77;3.73;;;0.70;97.30;;;;;;5035587;28;20413;-84
2022/11/21 10:05:58;;;;;;;2.87;2.67;;;0.70;97.30;;;;;;5017279;28;20477;-85
2022/11/21 10:08:33;;;;;;;7.13;5.13;;;0.80;97.30;;;;;;5016637;28;20439;-84
2022/11/21 10:11:17;;;;;;;3.50;3.30;;;0.80;97.30;;;;;;5016891;28;20835;-84
2022/11/21 10:14:13;;;;;;;3.60;3.40;;;0.90;97.30;;;;;;5016866;28;20953;-84
2022/11/21 10:16:45;;;;;;;4.17;3.37;;;0.90;97.30;;;;;;5024708;28;20501;-84
2022/11/21 10:19:35;;;;;;;4.67;4.37;;;1.00;97.30;;;;;;5033334;28;20442;-84
2022/11/21 10:22:18;;;;;;;12.33;5.27;;;1.00;97.30;;;;;;5033100;28;20431;-84
2022/11/21 10:25:01;;;;;;;3.40;2.87;;;1.10;97.30;;;;;;5032806;28;20426;-84
2022/11/21 10:27:36;;;;;;;3.53;2.87;;;1.10;97.30;;;;;;5033017;28;20434;-84
2022/11/21 10:30:05;;;;;;;4.80;3.97;;;1.00;97.30;;;;;;5033108;28;20843;-84
2022/11/21 10:32:42;;;;;;;2.87;1.60;;;1.00;97.30;;;;;;5033049;28;21011;-84
2022/11/21 10:35:19;;;;;;;7.50;3.90;;;1.00;97.30;;;;;;5033195;28;20411;-84
2022/11/21 10:37:52;;;;;;;3.20;2.60;;;1.00;97.30;;;;;;5033751;28;20419;-85
2022/11/21 10:40:47;;;;;;;10.10;4.77;;;1.10;97.30;;;;;;5034243;28;20478;-84
2022/11/21 10:46:07;;;;;;;3.20;3.00;;;1.10;97.30;;;;;;5058417;28;20445;-86
2022/11/21 10:48:33;;;;;;;2.80;2.60;;;1.20;97.30;;;;;;5036941;28;20473;-84
2022/11/21 10:51:13;;;;;;;4.20;2.97;;;1.20;97.30;;;;;;5032821;28;20908;-84
2022/11/21 10:56:25;;;;;;;5.53;5.23;;;1.30;97.30;;;;;;5044100;28;20414;-84
2022/11/21 10:58:54;;;;;;;3.87;3.63;;;1.30;97.30;;;;;;5035527;28;21039;-83
2022/11/21 11:04:09;;;;;;;7.30;5.20;;;1.40;97.30;;;;;;5093194;22;21039;-86
2022/11/21 11:06:40;;;;;;;4.17;3.40;;;1.40;97.30;;;;;;5042655;28;20564;-86
2022/11/21 11:09:06;;;;;;;3.37;3.13;;;1.50;97.30;;;;;;5044251;28;20491;-86
2022/11/21 11:11:32;;;;;;;7.17;5.27;;;1.60;97.30;;;;;;5052510;28;20421;-87
2022/11/21 11:14:04;;;;;;;2.67;2.47;;;1.60;97.30;;;;;;5056492;28;20405;-88
2022/11/21 11:16:33;;;;;;;3.00;1.77;;;1.70;97.30;;;;;;5043559;28;20419;-87
2022/11/21 11:19:14;;;;;;;3.13;2.10;;;1.70;97.30;;;;;;5024134;28;20428;-88
2022/11/21 11:21:40;;;;;;;10.17;5.90;;;1.80;97.30;;;;;;5031614;28;20453;-87
2022/11/21 11:24:27;;;;;;;7.30;4.40;;;1.90;97.30;;;;;;5031692;28;20433;-87
2022/11/21 11:26:56;;;;;;;4.83;4.53;;;1.90;97.30;;;;;;5028893;28;20176;-87
2022/11/21 11:29:23;;;;;;;14.30;4.10;;;1.90;97.30;;;;;;5038173;28;20826;-88
2022/11/21 11:31:55;;;;;;;4.03;3.80;;;1.90;97.30;;;;;;5036255;28;20826;-88
2022/11/21 11:34:21;;;;;;;4.97;2.80;;;1.90;97.30;;;;;;5036486;28;20422;-88
2022/11/21 11:37:10;;;;;;;2.50;2.30;;;1.90;97.30;;;;;;5036379;28;20411;-88
2022/11/21 11:39:48;;;;;;;8.97;3.50;;;2.10;97.30;;;;;;5036310;28;20414;-88
2022/11/21 11:48:09;;;;;;;2.73;2.53;;;2.10;97.30;;;;;;5054088;28;20402;-88
2022/11/21 11:50:55;;;;;;;3.17;2.23;;;2.20;97.30;;;;;;5053996;28;20415;-88
2022/11/21 11:53:24;;;;;;;4.13;3.90;;;2.20;97.30;;;;;;5036176;28;20441;-88
2022/11/21 11:55:54;;;;;;;3.67;3.10;;;2.20;97.30;;;;;;5035744;28;20438;-88
2022/11/21 11:58:37;;;;;;;2.67;2.47;;;2.20;97.30;;;;;;5036114;28;20414;-89
2022/11/21 12:01:28;;;;;;;3.77;3.53;;;2.20;97.30;;;;;;5036116;28;20446;-88
2022/11/21 12:04:14;;;;;;;7.60;5.70;;;2.30;97.30;;;;;;5052300;28;20474;-88
2022/11/21 12:06:47;;;;;;;9.87;3.17;;;2.40;97.30;;;;;;5035994;28;20414;-88
2022/11/21 12:09:40;;;;;;;2.47;2.27;;;2.40;97.30;;;;;;5035652;28;20419;-88
2022/11/21 12:12:24;;;;;;;6.50;3.97;;;2.50;97.30;;;;;;5031144;28;20441;-88
2022/11/21 12:18:13;;;;;;;2.60;2.33;;;2.20;97.30;;;;;;5053911;28;20943;-88
2022/11/21 12:20:50;;;;;;;5.50;4.23;;;2.20;97.30;;;;;;5034717;28;20596;-88
2022/11/21 12:23:17;;;;;;;2.93;2.47;;;2.00;97.30;;;;;;5035698;28;20660;-88
2022/11/21 12:25:55;;;;;;;6.20;4.90;;;2.00;97.30;;;;;;5035409;28;20414;-88
2022/11/21 12:28:40;;;;;;;3.77;3.23;;;1.90;97.30;;;;;;5035709;28;20782;-88
2022/11/21 12:31:32;;;;;;;5.67;4.50;;;1.90;97.30;;;;;;5035350;28;20402;-88
2022/11/21 12:34:27;;;;;;;3.00;2.80;;;1.90;97.30;;;;;;5052445;28;20414;-88
2022/11/21 12:37:07;;;;;;;5.20;4.73;;;1.90;97.30;;;;;;5013322;28;20426;-88
2022/11/21 12:39:41;;;;;;;5.80;3.30;;;1.90;97.30;;;;;;5035168;28;20456;-88
2022/11/21 12:45:28;;;;;;;5.83;4.20;;;1.80;97.30;;;;;;5053049;28;20437;-88
2022/11/21 12:56:51;;;;;;;5.97;5.13;;;1.60;97.30;;;;;;5052743;28;20413;-88
2022/11/21 12:59:18;;;;;;;2.87;2.67;;;1.60;97.30;;;;;;5051272;28;20422;-88
2022/11/21 13:02:25;;;;;;;2.40;2.20;;;1.60;97.30;;;;;;5052262;28;20846;-87
2022/11/21 13:04:52;;;;;;;7.33;2.10;;;1.60;97.30;;;;;;5034759;28;20418;-88
2022/11/21 13:07:19;;;;;;;9.67;5.10;;;1.60;97.30;;;;;;5051447;28;20410;-87
2022/11/21 13:09:47;;;;;;;8.33;3.73;;;1.60;97.30;;;;;;5034471;28;20411;-87
2022/11/21 13:12:42;;;;;;;2.03;1.90;;;1.50;97.30;;;;;;5034696;28;20453;-87
2022/11/21 13:15:37;;;;;;;3.23;3.03;;;1.50;97.30;;;;;;5021900;28;20436;-88
2022/11/21 13:18:15;;;;;;;4.20;3.77;;;1.50;97.30;;;;;;5015099;28;20419;-87
2022/11/21 13:20:47;;;;;;;13.53;5.47;;;1.50;97.30;;;;;;5014502;28;20520;-87
2022/11/21 13:23:41;;;;;;;4.63;4.33;;;1.50;97.30;;;;;;5014802;28;20992;-88
2022/11/21 13:26:36;;;;;;;9.93;4.50;;;1.50;97.30;;;;;;5032090;28;20465;-87
2022/11/21 13:29:14;;;;;;;4.70;3.60;;;1.50;97.30;;;;;;5018560;28;20517;-87
2022/11/21 13:31:41;;;;;;;4.10;3.87;;;1.50;97.30;;;;;;5032011;28;20399;-88
2022/11/21 13:34:35;;;;;;;2.73;2.53;;;1.50;97.30;;;;;;5030929;28;20416;-87
2022/11/21 13:37:02;;;;;;;6.10;2.30;;;1.50;97.30;;;;;;5014297;28;20419;-87
2022/11/21 13:39:33;;;;;;;6.70;3.13;;;1.50;97.30;;;;;;5031807;28;20414;-87
2022/11/21 13:44:46;;;;;;;9.27;5.37;;;1.40;97.30;;;;;;5032328;28;20456;-87
2022/11/21 13:47:54;;;;;;;2.93;2.73;;;1.40;97.30;;;;;;5014588;28;20414;-88